MSC Fabiola — A8VL5 — position and weather

sailwx.info

Track history (hours):
 
Tides and Currents Weather Stations Pressure Air Temp Water Temp Dewpoint Dewpoint Depression Visibility Wind Speed Wind Dir Waves Ship Positions

MSC Fabiola

Last reported at 2015-Aug-30 02:31 UTC. Time now 2015-Aug-30 10:00 UTC.
Position N 03°14' E 100°36'.

Length 366 m; draft 15.6 m.

Type: Ship. MMSI: 636092019.

Date/timePositionNaut miles runAvg speedWind from/ knotsBaromVisibWave heightAir tempDewpointWater temp
2015-Aug-30 02:31N 03°14' E 100°36'2121.8
2015-Aug-30 01:33N 02°59' E 100°51'2020.2
2015-Aug-30 00:33N 02°46' E 101°06'3517.3
2015-Aug-29 22:33N 02°29' E 101°37'14518.1
2015-Aug-29 14:33N 01°11' E 103°39'10 9.9
2015-Aug-29 13:33N 01°12' E 103°49'5 4.6
2015-Aug-29 12:33N 01°16' E 103°46'0 0.0
2015-Aug-29 11:30N 01°16' E 103°46'0 0.0
2015-Aug-29 10:33N 01°16' E 103°46'0 0.0
2015-Aug-29 09:33N 01°16' E 103°46'0 0.0
2015-Aug-29 08:33N 01°16' E 103°46'0 0.0
2015-Aug-29 07:33N 01°16' E 103°46'0 0.0
2015-Aug-29 06:33N 01°16' E 103°46'0 0.0
2015-Aug-29 05:33N 01°16' E 103°46'0 0.0
2015-Aug-29 04:33N 01°16' E 103°46'0 0.0
2015-Aug-29 03:33N 01°16' E 103°46'0 0.0
2015-Aug-29 02:30N 01°16' E 103°46'0 0.0
2015-Aug-29 01:33N 01°16' E 103°46'0 0.0
2015-Aug-29 00:33N 01°16' E 103°46'0 0.1
2015-Aug-28 23:33N 01°16' E 103°46'0 0.1
2015-Aug-28 22:33N 01°16' E 103°46'0 0.0
2015-Aug-28 21:27N 01°16' E 103°46'0 0.0
2015-Aug-28 20:33N 01°16' E 103°46'0 0.0
2015-Aug-28 19:33N 01°16' E 103°46'0 0.0
2015-Aug-28 18:33N 01°16' E 103°46'0 0.0
2015-Aug-28 17:33N 01°16' E 103°46'0 0.0
2015-Aug-28 16:33N 01°16' E 103°46'0 0.0
2015-Aug-28 15:33N 01°16' E 103°46'0 0.0
2015-Aug-28 14:33N 01°16' E 103°46'0 0.0
2015-Aug-28 13:33N 01°16' E 103°46'0 0.0
2015-Aug-28 12:27N 01°16' E 103°46'0 0.0
2015-Aug-28 11:33N 01°16' E 103°46'0 0.5
2015-Aug-28 10:33N 01°16' E 103°46'8 7.7
2015-Aug-28 09:33N 01°13' E 103°54'10 9.9
2015-Aug-28 08:33N 01°16' E 104°03'  
2015-Aug-24 01:21N 22°07' E 114°15'1210.1
2015-Aug-24 00:08N 22°17' E 114°06'17 0.9
2015-Aug-23 06:07N 22°28' E 113°53'2 3.4
2015-Aug-23 05:33N 22°26' E 113°52'1312.7
2015-Aug-23 04:33N 22°13' E 113°49'  
2015-Aug-20 08:25N 30°38' E 122°03'2 2.4
2015-Aug-20 07:33N 30°36' E 122°04'1210.0
2015-Aug-20 06:18N 30°33' E 122°19'  
Track history (hours):
 
Tides and Currents Weather Stations Pressure Air Temp Water Temp Dewpoint Dewpoint Depression Visibility Wind Speed Wind Dir Waves Ship Positions

MSC Fabiola

Last reported at 2015-Aug-30 02:31 UTC. Time now 2015-Aug-30 10:00 UTC.
Position N 03°14' E 100°36'.

Length 366 m; draft 15.6 m.

Type: Ship. MMSI: 636092019.

Date/timePositionNaut miles runAvg speedWind from/ knotsBaromVisibWave heightAir tempDewpointWater temp
2015-Aug-30 02:31N 03°14' E 100°36'2121.8
2015-Aug-30 01:33N 02°59' E 100°51'2020.2
2015-Aug-30 00:33N 02°46' E 101°06'3517.3
2015-Aug-29 22:33N 02°29' E 101°37'14518.1
2015-Aug-29 14:33N 01°11' E 103°39'10 9.9
2015-Aug-29 13:33N 01°12' E 103°49'5 4.6
2015-Aug-29 12:33N 01°16' E 103°46'0 0.0
2015-Aug-29 11:30N 01°16' E 103°46'0 0.0
2015-Aug-29 10:33N 01°16' E 103°46'0 0.0
2015-Aug-29 09:33N 01°16' E 103°46'0 0.0
2015-Aug-29 08:33N 01°16' E 103°46'0 0.0
2015-Aug-29 07:33N 01°16' E 103°46'0 0.0
2015-Aug-29 06:33N 01°16' E 103°46'0 0.0
2015-Aug-29 05:33N 01°16' E 103°46'0 0.0
2015-Aug-29 04:33N 01°16' E 103°46'0 0.0
2015-Aug-29 03:33N 01°16' E 103°46'0 0.0
2015-Aug-29 02:30N 01°16' E 103°46'0 0.0
2015-Aug-29 01:33N 01°16' E 103°46'0 0.0
2015-Aug-29 00:33N 01°16' E 103°46'0 0.1
2015-Aug-28 23:33N 01°16' E 103°46'0 0.1
2015-Aug-28 22:33N 01°16' E 103°46'0 0.0
2015-Aug-28 21:27N 01°16' E 103°46'0 0.0
2015-Aug-28 20:33N 01°16' E 103°46'0 0.0
2015-Aug-28 19:33N 01°16' E 103°46'0 0.0
2015-Aug-28 18:33N 01°16' E 103°46'0 0.0
2015-Aug-28 17:33N 01°16' E 103°46'0 0.0
2015-Aug-28 16:33N 01°16' E 103°46'0 0.0
2015-Aug-28 15:33N 01°16' E 103°46'0 0.0
2015-Aug-28 14:33N 01°16' E 103°46'0 0.0
2015-Aug-28 13:33N 01°16' E 103°46'0 0.0
2015-Aug-28 12:27N 01°16' E 103°46'0 0.0
2015-Aug-28 11:33N 01°16' E 103°46'0 0.5
2015-Aug-28 10:33N 01°16' E 103°46'8 7.7
2015-Aug-28 09:33N 01°13' E 103°54'10 9.9
2015-Aug-28 08:33N 01°16' E 104°03'  
2015-Aug-24 01:21N 22°07' E 114°15'1210.1
2015-Aug-24 00:08N 22°17' E 114°06'17 0.9
2015-Aug-23 06:07N 22°28' E 113°53'2 3.4
2015-Aug-23 05:33N 22°26' E 113°52'1312.7
2015-Aug-23 04:33N 22°13' E 113°49'  
2015-Aug-20 08:25N 30°38' E 122°03'2 2.4
2015-Aug-20 07:33N 30°36' E 122°04'1210.0
2015-Aug-20 06:18N 30°33' E 122°19'  

Dump ship's entire track history